aviador You're here:

KAAO Decoded Metar

WICHITA/JABARA in KS, USA
Report Time2018-07-23 14:54:00
UTC Time2018-07-23 15:43:25
Flight Rules vfr VFR
Wind080° at 04 kt
W.Decomp.*RWY 36: 1.1 kt HW 3.8 kt RCW
W.Rank080° ranks 30
Current wind is below 080° avg. (6.4)
Visibility9999 m
Phenomena:N/A
Clouds:N/A
Expected CloudBase > 3,600 ft AGL from Temp-Dew spread
CeilingNone
Temp27°C (ISA +15)
Dew Point18°C (58% RH)
Heat Index27.9°C
QNH1019 hPa
Density Alt3,209 ft
Elevation1,424 ft
Report Wrong Elevation
Raw Report
KAAO 231454Z AUTO 08004KT 10SM CLR 27/18 A3008 RMK AO2 SLP173
T02670178 53006=

Extra information for KAAO:More info

Metar Taf Metar & Taf Last 4 Metars F.Rules Stats Wind Profile Meteogram Temp Stats Airport Information Weather charts Add Link Nearby VenuesMetar ALERT Operation Metar Decoded Social comments

AIRNAV info for KAAO